sensor_id;sensor_type;location;lat;lon;timestamp;P1;durP1;ratioP1;P2;durP2;ratioP2
25155;SDS011;21913;52.456;13.634;2022-11-13T00:02:51;7.47;;;4.63;;
25155;SDS011;21913;52.456;13.634;2022-11-13T00:08:11;7.55;;;5.20;;
25155;SDS011;21913;52.456;13.634;2022-11-13T00:13:32;8.98;;;4.97;;
25155;SDS011;21913;52.456;13.634;2022-11-13T00:18:53;10.45;;;5.10;;
25155;SDS011;21913;52.456;13.634;2022-11-13T00:24:13;9.48;;;4.97;;
25155;SDS011;21913;52.456;13.634;2022-11-13T00:29:33;8.50;;;5.40;;
25155;SDS011;21913;52.456;13.634;2022-11-13T00:34:53;7.55;;;4.85;;
25155;SDS011;21913;52.456;13.634;2022-11-13T00:40:13;8.80;;;5.07;;
25155;SDS011;21913;52.456;13.634;2022-11-13T00:45:33;7.72;;;4.97;;
25155;SDS011;21913;52.456;13.634;2022-11-13T00:50:53;8.95;;;5.10;;
25155;SDS011;21913;52.456;13.634;2022-11-13T00:56:13;6.50;;;4.53;;
25155;SDS011;21913;52.456;13.634;2022-11-13T01:01:33;6.43;;;4.45;;
25155;SDS011;21913;52.456;13.634;2022-11-13T01:06:53;6.95;;;4.63;;
25155;SDS011;21913;52.456;13.634;2022-11-13T01:12:13;8.98;;;4.68;;
25155;SDS011;21913;52.456;13.634;2022-11-13T01:17:34;8.32;;;4.57;;
25155;SDS011;21913;52.456;13.634;2022-11-13T01:22:54;8.60;;;4.40;;
25155;SDS011;21913;52.456;13.634;2022-11-13T01:28:14;6.47;;;4.38;;
25155;SDS011;21913;52.456;13.634;2022-11-13T01:33:34;6.38;;;4.38;;
25155;SDS011;21913;52.456;13.634;2022-11-13T01:38:54;8.18;;;4.47;;
25155;SDS011;21913;52.456;13.634;2022-11-13T01:44:15;5.85;;;4.20;;
25155;SDS011;21913;52.456;13.634;2022-11-13T01:49:37;7.75;;;4.25;;
25155;SDS011;21913;52.456;13.634;2022-11-13T01:55:01;7.63;;;4.00;;
25155;SDS011;21913;52.456;13.634;2022-11-13T02:00:23;5.75;;;3.83;;
25155;SDS011;21913;52.456;13.634;2022-11-13T02:05:43;6.65;;;4.03;;
25155;SDS011;21913;52.456;13.634;2022-11-13T02:11:04;7.63;;;4.18;;
25155;SDS011;21913;52.456;13.634;2022-11-13T02:16:24;6.93;;;4.20;;
25155;SDS011;21913;52.456;13.634;2022-11-13T02:32:55;6.43;;;3.72;;
25155;SDS011;21913;52.456;13.634;2022-11-13T02:38:16;7.05;;;3.97;;
25155;SDS011;21913;52.456;13.634;2022-11-13T02:43:36;7.07;;;4.60;;
25155;SDS011;21913;52.456;13.634;2022-11-13T02:48:56;6.18;;;3.80;;
25155;SDS011;21913;52.456;13.634;2022-11-13T02:54:16;6.15;;;3.90;;
25155;SDS011;21913;52.456;13.634;2022-11-13T02:59:36;4.82;;;3.70;;
25155;SDS011;21913;52.456;13.634;2022-11-13T03:04:56;5.47;;;3.38;;
25155;SDS011;21913;52.456;13.634;2022-11-13T03:10:30;6.07;;;3.72;;
25155;SDS011;21913;52.456;13.634;2022-11-13T03:15:50;6.85;;;3.95;;
25155;SDS011;21913;52.456;13.634;2022-11-13T03:21:11;6.10;;;3.60;;
25155;SDS011;21913;52.456;13.634;2022-11-13T03:26:32;5.50;;;3.60;;
25155;SDS011;21913;52.456;13.634;2022-11-13T03:31:52;5.25;;;3.45;;
25155;SDS011;21913;52.456;13.634;2022-11-13T03:37:12;5.32;;;3.63;;
25155;SDS011;21913;52.456;13.634;2022-11-13T03:42:33;5.72;;;3.35;;
25155;SDS011;21913;52.456;13.634;2022-11-13T03:47:53;5.03;;;3.40;;
25155;SDS011;21913;52.456;13.634;2022-11-13T03:53:13;5.22;;;3.70;;
25155;SDS011;21913;52.456;13.634;2022-11-13T03:58:34;4.85;;;3.40;;
25155;SDS011;21913;52.456;13.634;2022-11-13T04:03:57;4.75;;;3.08;;
25155;SDS011;21913;52.456;13.634;2022-11-13T04:09:17;6.57;;;3.65;;
25155;SDS011;21913;52.456;13.634;2022-11-13T04:14:37;5.57;;;3.38;;
25155;SDS011;21913;52.456;13.634;2022-11-13T04:19:57;5.38;;;3.45;;
25155;SDS011;21913;52.456;13.634;2022-11-13T04:25:17;4.15;;;3.13;;
25155;SDS011;21913;52.456;13.634;2022-11-13T04:30:37;5.70;;;3.40;;
25155;SDS011;21913;52.456;13.634;2022-11-13T04:35:57;5.13;;;3.47;;
25155;SDS011;21913;52.456;13.634;2022-11-13T04:41:18;5.97;;;3.15;;
25155;SDS011;21913;52.456;13.634;2022-11-13T04:46:38;4.22;;;3.17;;
25155;SDS011;21913;52.456;13.634;2022-11-13T04:51:58;5.15;;;2.97;;
25155;SDS011;21913;52.456;13.634;2022-11-13T04:57:18;4.72;;;3.22;;
25155;SDS011;21913;52.456;13.634;2022-11-13T05:02:38;4.22;;;3.00;;
25155;SDS011;21913;52.456;13.634;2022-11-13T05:07:58;4.07;;;2.88;;
25155;SDS011;21913;52.456;13.634;2022-11-13T05:13:18;5.22;;;2.90;;
25155;SDS011;21913;52.456;13.634;2022-11-13T05:18:39;4.78;;;2.97;;
25155;SDS011;21913;52.456;13.634;2022-11-13T05:23:59;4.53;;;2.80;;
25155;SDS011;21913;52.456;13.634;2022-11-13T05:29:19;5.13;;;2.90;;
25155;SDS011;21913;52.456;13.634;2022-11-13T05:34:40;4.07;;;2.90;;
25155;SDS011;21913;52.456;13.634;2022-11-13T05:40:00;4.00;;;2.78;;
25155;SDS011;21913;52.456;13.634;2022-11-13T05:45:21;4.15;;;2.75;;
25155;SDS011;21913;52.456;13.634;2022-11-13T05:50:41;3.47;;;2.58;;
25155;SDS011;21913;52.456;13.634;2022-11-13T06:01:24;3.65;;;2.63;;
25155;SDS011;21913;52.456;13.634;2022-11-13T06:06:49;4.47;;;2.78;;
25155;SDS011;21913;52.456;13.634;2022-11-13T06:12:10;4.68;;;2.95;;
25155;SDS011;21913;52.456;13.634;2022-11-13T06:17:30;4.65;;;2.72;;
25155;SDS011;21913;52.456;13.634;2022-11-13T06:22:50;3.40;;;2.47;;
25155;SDS011;21913;52.456;13.634;2022-11-13T06:28:10;3.85;;;2.47;;
25155;SDS011;21913;52.456;13.634;2022-11-13T06:33:30;4.07;;;2.55;;
25155;SDS011;21913;52.456;13.634;2022-11-13T06:38:51;3.50;;;2.40;;
25155;SDS011;21913;52.456;13.634;2022-11-13T06:44:11;6.00;;;2.67;;
25155;SDS011;21913;52.456;13.634;2022-11-13T06:49:31;3.83;;;2.75;;
25155;SDS011;21913;52.456;13.634;2022-11-13T06:54:51;4.25;;;2.70;;
25155;SDS011;21913;52.456;13.634;2022-11-13T07:00:11;3.50;;;2.47;;
25155;SDS011;21913;52.456;13.634;2022-11-13T07:05:34;3.60;;;2.13;;
25155;SDS011;21913;52.456;13.634;2022-11-13T07:10:55;4.35;;;2.55;;
25155;SDS011;21913;52.456;13.634;2022-11-13T07:16:16;3.83;;;2.50;;
25155;SDS011;21913;52.456;13.634;2022-11-13T07:21:38;5.05;;;2.40;;
25155;SDS011;21913;52.456;13.634;2022-11-13T07:26:58;3.53;;;2.30;;
25155;SDS011;21913;52.456;13.634;2022-11-13T07:32:18;3.22;;;2.50;;
25155;SDS011;21913;52.456;13.634;2022-11-13T07:37:38;4.28;;;2.55;;
25155;SDS011;21913;52.456;13.634;2022-11-13T07:42:58;3.10;;;2.30;;
25155;SDS011;21913;52.456;13.634;2022-11-13T07:48:20;4.55;;;2.22;;
25155;SDS011;21913;52.456;13.634;2022-11-13T07:53:41;3.75;;;2.28;;
25155;SDS011;21913;52.456;13.634;2022-11-13T07:59:01;3.78;;;2.30;;
25155;SDS011;21913;52.456;13.634;2022-11-13T08:04:21;3.38;;;2.20;;
25155;SDS011;21913;52.456;13.634;2022-11-13T08:09:41;4.18;;;2.28;;
25155;SDS011;21913;52.456;13.634;2022-11-13T08:15:01;3.45;;;2.20;;
25155;SDS011;21913;52.456;13.634;2022-11-13T08:25:42;3.88;;;2.28;;
25155;SDS011;21913;52.456;13.634;2022-11-13T08:31:02;3.63;;;2.30;;
25155;SDS011;21913;52.456;13.634;2022-11-13T08:36:23;3.00;;;2.10;;
25155;SDS011;21913;52.456;13.634;2022-11-13T08:41:43;3.65;;;2.33;;
25155;SDS011;21913;52.456;13.634;2022-11-13T08:47:03;3.05;;;2.05;;
25155;SDS011;21913;52.456;13.634;2022-11-13T08:52:23;3.67;;;2.03;;
25155;SDS011;21913;52.456;13.634;2022-11-13T08:57:43;2.78;;;2.00;;
25155;SDS011;21913;52.456;13.634;2022-11-13T09:03:03;3.10;;;2.10;;
25155;SDS011;21913;52.456;13.634;2022-11-13T09:08:23;4.00;;;2.33;;
25155;SDS011;21913;52.456;13.634;2022-11-13T09:13:43;3.75;;;2.50;;
25155;SDS011;21913;52.456;13.634;2022-11-13T09:19:05;2.90;;;2.05;;
25155;SDS011;21913;52.456;13.634;2022-11-13T09:24:25;3.22;;;2.05;;
25155;SDS011;21913;52.456;13.634;2022-11-13T09:29:45;3.13;;;1.85;;
25155;SDS011;21913;52.456;13.634;2022-11-13T09:35:07;2.97;;;1.95;;
25155;SDS011;21913;52.456;13.634;2022-11-13T09:40:31;2.55;;;1.75;;
25155;SDS011;21913;52.456;13.634;2022-11-13T09:45:56;2.53;;;1.92;;
25155;SDS011;21913;52.456;13.634;2022-11-13T09:51:23;3.90;;;2.15;;
25155;SDS011;21913;52.456;13.634;2022-11-13T10:14:17;2.95;;;2.20;;
25155;SDS011;21913;52.456;13.634;2022-11-13T10:19:56;3.00;;;2.10;;
25155;SDS011;21913;52.456;13.634;2022-11-13T10:25:19;2.83;;;1.75;;
25155;SDS011;21913;52.456;13.634;2022-11-13T10:30:42;2.78;;;1.92;;
25155;SDS011;21913;52.456;13.634;2022-11-13T10:36:11;2.22;;;1.80;;
25155;SDS011;21913;52.456;13.634;2022-11-13T10:41:58;2.83;;;1.80;;
25155;SDS011;21913;52.456;13.634;2022-11-13T10:47:19;2.53;;;1.70;;
25155;SDS011;21913;52.456;13.634;2022-11-13T10:52:55;1.83;;;1.60;;
25155;SDS011;21913;52.456;13.634;2022-11-13T10:58:17;3.30;;;1.80;;
25155;SDS011;21913;52.456;13.634;2022-11-13T11:03:46;3.03;;;1.88;;
25155;SDS011;21913;52.456;13.634;2022-11-13T11:09:15;2.13;;;1.75;;
25155;SDS011;21913;52.456;13.634;2022-11-13T11:14:43;3.55;;;2.03;;
25155;SDS011;21913;52.456;13.634;2022-11-13T11:25:46;2.92;;;1.90;;
25155;SDS011;21913;52.456;13.634;2022-11-13T11:31:14;2.58;;;1.75;;
25155;SDS011;21913;52.456;13.634;2022-11-13T11:36:59;27.25;;;2.80;;
25155;SDS011;21913;52.456;13.634;2022-11-13T11:42:33;17.08;;;2.95;;
25155;SDS011;21913;52.456;13.634;2022-11-13T11:48:00;19.65;;;2.40;;
25155;SDS011;21913;52.456;13.634;2022-11-13T12:04:36;14.05;;;2.63;;
25155;SDS011;21913;52.456;13.634;2022-11-13T12:10:06;12.82;;;2.45;;
25155;SDS011;21913;52.456;13.634;2022-11-13T12:20:56;9.85;;;2.40;;
25155;SDS011;21913;52.456;13.634;2022-11-13T12:26:26;7.75;;;2.03;;
25155;SDS011;21913;52.456;13.634;2022-11-13T12:31:56;8.38;;;2.13;;
25155;SDS011;21913;52.456;13.634;2022-11-13T12:37:22;7.20;;;2.22;;
25155;SDS011;21913;52.456;13.634;2022-11-13T12:42:48;10.68;;;2.28;;
25155;SDS011;21913;52.456;13.634;2022-11-13T12:53:53;8.23;;;2.20;;
25155;SDS011;21913;52.456;13.634;2022-11-13T13:04:56;6.93;;;2.15;;
25155;SDS011;21913;52.456;13.634;2022-11-13T13:10:31;8.60;;;2.20;;
25155;SDS011;21913;52.456;13.634;2022-11-13T13:16:02;6.18;;;2.30;;
25155;SDS011;21913;52.456;13.634;2022-11-13T13:21:24;7.88;;;1.95;;
25155;SDS011;21913;52.456;13.634;2022-11-13T13:26:45;6.82;;;2.05;;
25155;SDS011;21913;52.456;13.634;2022-11-13T13:32:10;8.27;;;1.98;;
25155;SDS011;21913;52.456;13.634;2022-11-13T13:49:17;6.70;;;2.38;;
25155;SDS011;21913;52.456;13.634;2022-11-13T13:54:40;7.15;;;2.00;;
25155;SDS011;21913;52.456;13.634;2022-11-13T14:00:03;7.38;;;2.13;;
25155;SDS011;21913;52.456;13.634;2022-11-13T14:05:31;5.65;;;1.95;;
25155;SDS011;21913;52.456;13.634;2022-11-13T14:10:53;5.68;;;2.00;;
25155;SDS011;21913;52.456;13.634;2022-11-13T14:16:13;5.18;;;1.80;;
25155;SDS011;21913;52.456;13.634;2022-11-13T14:21:34;5.60;;;1.90;;
25155;SDS011;21913;52.456;13.634;2022-11-13T14:32:15;3.35;;;1.40;;
25155;SDS011;21913;52.456;13.634;2022-11-13T14:37:38;5.07;;;1.95;;
25155;SDS011;21913;52.456;13.634;2022-11-13T14:43:06;4.82;;;1.90;;
25155;SDS011;21913;52.456;13.634;2022-11-13T14:48:33;6.60;;;1.70;;
25155;SDS011;21913;52.456;13.634;2022-11-13T14:54:03;3.80;;;1.70;;
25155;SDS011;21913;52.456;13.634;2022-11-13T14:59:27;3.63;;;1.90;;
25155;SDS011;21913;52.456;13.634;2022-11-13T15:04:47;5.75;;;1.98;;
25155;SDS011;21913;52.456;13.634;2022-11-13T15:10:09;4.20;;;1.90;;
25155;SDS011;21913;52.456;13.634;2022-11-13T15:15:32;3.13;;;1.58;;
25155;SDS011;21913;52.456;13.634;2022-11-13T15:20:53;3.45;;;1.80;;
25155;SDS011;21913;52.456;13.634;2022-11-13T15:26:13;3.08;;;1.75;;
25155;SDS011;21913;52.456;13.634;2022-11-13T15:31:36;5.43;;;1.65;;
25155;SDS011;21913;52.456;13.634;2022-11-13T15:36:59;5.50;;;1.73;;
25155;SDS011;21913;52.456;13.634;2022-11-13T15:42:21;4.13;;;1.80;;
25155;SDS011;21913;52.456;13.634;2022-11-13T15:47:54;2.65;;;1.65;;
25155;SDS011;21913;52.456;13.634;2022-11-13T15:53:14;3.70;;;1.80;;
25155;SDS011;21913;52.456;13.634;2022-11-13T16:03:54;6.13;;;1.60;;
25155;SDS011;21913;52.456;13.634;2022-11-13T16:09:14;3.75;;;1.83;;
25155;SDS011;21913;52.456;13.634;2022-11-13T16:14:34;3.08;;;1.60;;
25155;SDS011;21913;52.456;13.634;2022-11-13T16:19:54;2.63;;;1.50;;
25155;SDS011;21913;52.456;13.634;2022-11-13T16:25:15;3.35;;;1.45;;
25155;SDS011;21913;52.456;13.634;2022-11-13T16:30:37;3.10;;;1.60;;
25155;SDS011;21913;52.456;13.634;2022-11-13T16:35:56;3.42;;;1.60;;
25155;SDS011;21913;52.456;13.634;2022-11-13T16:41:18;3.25;;;1.50;;
25155;SDS011;21913;52.456;13.634;2022-11-13T16:46:39;3.00;;;1.40;;
25155;SDS011;21913;52.456;13.634;2022-11-13T16:52:02;2.33;;;1.40;;
25155;SDS011;21913;52.456;13.634;2022-11-13T16:57:22;2.55;;;1.42;;
25155;SDS011;21913;52.456;13.634;2022-11-13T17:02:42;3.22;;;1.60;;
25155;SDS011;21913;52.456;13.634;2022-11-13T17:08:03;3.67;;;1.40;;
25155;SDS011;21913;52.456;13.634;2022-11-13T17:13:23;2.85;;;1.42;;
25155;SDS011;21913;52.456;13.634;2022-11-13T17:18:44;2.55;;;1.40;;
25155;SDS011;21913;52.456;13.634;2022-11-13T17:24:05;4.13;;;1.60;;
25155;SDS011;21913;52.456;13.634;2022-11-13T17:29:25;2.83;;;1.50;;
25155;SDS011;21913;52.456;13.634;2022-11-13T17:34:45;3.25;;;1.60;;
25155;SDS011;21913;52.456;13.634;2022-11-13T17:40:05;2.60;;;1.58;;
25155;SDS011;21913;52.456;13.634;2022-11-13T17:45:27;3.08;;;1.55;;
25155;SDS011;21913;52.456;13.634;2022-11-13T17:50:54;3.70;;;1.50;;
25155;SDS011;21913;52.456;13.634;2022-11-13T17:56:15;2.95;;;1.58;;
25155;SDS011;21913;52.456;13.634;2022-11-13T18:01:35;2.63;;;1.60;;
25155;SDS011;21913;52.456;13.634;2022-11-13T18:06:55;2.30;;;1.40;;
25155;SDS011;21913;52.456;13.634;2022-11-13T18:12:16;2.22;;;1.55;;
25155;SDS011;21913;52.456;13.634;2022-11-13T18:17:36;3.08;;;1.50;;
25155;SDS011;21913;52.456;13.634;2022-11-13T18:22:56;3.00;;;1.40;;
25155;SDS011;21913;52.456;13.634;2022-11-13T18:28:16;2.92;;;1.50;;
25155;SDS011;21913;52.456;13.634;2022-11-13T18:33:36;3.05;;;1.60;;
25155;SDS011;21913;52.456;13.634;2022-11-13T18:38:57;3.13;;;1.70;;
25155;SDS011;21913;52.456;13.634;2022-11-13T18:44:17;2.70;;;1.48;;
25155;SDS011;21913;52.456;13.634;2022-11-13T18:49:37;3.63;;;1.50;;
25155;SDS011;21913;52.456;13.634;2022-11-13T18:54:57;2.92;;;1.63;;
25155;SDS011;21913;52.456;13.634;2022-11-13T19:00:17;2.58;;;1.45;;
25155;SDS011;21913;52.456;13.634;2022-11-13T19:05:41;2.00;;;1.30;;
25155;SDS011;21913;52.456;13.634;2022-11-13T19:11:06;2.20;;;1.50;;
25155;SDS011;21913;52.456;13.634;2022-11-13T19:16:32;2.80;;;1.60;;
25155;SDS011;21913;52.456;13.634;2022-11-13T19:21:54;2.28;;;1.40;;
25155;SDS011;21913;52.456;13.634;2022-11-13T19:27:14;2.63;;;1.60;;
25155;SDS011;21913;52.456;13.634;2022-11-13T19:32:34;3.25;;;1.90;;
25155;SDS011;21913;52.456;13.634;2022-11-13T19:37:54;3.00;;;1.98;;
25155;SDS011;21913;52.456;13.634;2022-11-13T19:43:15;3.45;;;1.75;;
25155;SDS011;21913;52.456;13.634;2022-11-13T19:48:36;3.65;;;1.80;;
25155;SDS011;21913;52.456;13.634;2022-11-13T19:53:58;2.75;;;1.60;;
25155;SDS011;21913;52.456;13.634;2022-11-13T19:59:18;3.17;;;1.70;;
25155;SDS011;21913;52.456;13.634;2022-11-13T20:04:38;3.20;;;1.90;;
25155;SDS011;21913;52.456;13.634;2022-11-13T20:09:58;2.97;;;1.60;;
25155;SDS011;21913;52.456;13.634;2022-11-13T20:15:18;2.85;;;1.80;;
25155;SDS011;21913;52.456;13.634;2022-11-13T20:20:41;2.75;;;1.98;;
25155;SDS011;21913;52.456;13.634;2022-11-13T20:26:04;3.22;;;1.80;;
25155;SDS011;21913;52.456;13.634;2022-11-13T20:31:27;2.78;;;1.90;;
25155;SDS011;21913;52.456;13.634;2022-11-13T20:36:47;3.10;;;1.85;;
25155;SDS011;21913;52.456;13.634;2022-11-13T20:42:07;3.63;;;2.13;;
25155;SDS011;21913;52.456;13.634;2022-11-13T20:47:27;3.60;;;2.10;;
25155;SDS011;21913;52.456;13.634;2022-11-13T20:52:47;3.25;;;2.00;;
25155;SDS011;21913;52.456;13.634;2022-11-13T21:03:28;3.38;;;1.90;;
25155;SDS011;21913;52.456;13.634;2022-11-13T21:14:09;3.22;;;2.25;;
25155;SDS011;21913;52.456;13.634;2022-11-13T21:19:29;3.88;;;2.33;;
25155;SDS011;21913;52.456;13.634;2022-11-13T21:24:49;4.05;;;2.35;;
25155;SDS011;21913;52.456;13.634;2022-11-13T21:30:09;6.40;;;2.47;;
25155;SDS011;21913;52.456;13.634;2022-11-13T21:35:30;3.63;;;2.50;;
25155;SDS011;21913;52.456;13.634;2022-11-13T21:40:57;4.45;;;2.53;;
25155;SDS011;21913;52.456;13.634;2022-11-13T21:46:18;5.47;;;2.40;;
25155;SDS011;21913;52.456;13.634;2022-11-13T21:51:41;4.00;;;2.58;;
25155;SDS011;21913;52.456;13.634;2022-11-13T21:57:01;5.15;;;2.70;;
25155;SDS011;21913;52.456;13.634;2022-11-13T22:02:21;5.30;;;2.50;;
25155;SDS011;21913;52.456;13.634;2022-11-13T22:07:41;3.55;;;2.55;;
25155;SDS011;21913;52.456;13.634;2022-11-13T22:13:01;4.38;;;2.88;;
25155;SDS011;21913;52.456;13.634;2022-11-13T22:18:21;2.80;;;2.30;;
25155;SDS011;21913;52.456;13.634;2022-11-13T22:23:42;3.95;;;2.80;;
25155;SDS011;21913;52.456;13.634;2022-11-13T22:29:02;4.80;;;2.80;;
25155;SDS011;21913;52.456;13.634;2022-11-13T22:34:23;4.45;;;2.65;;
25155;SDS011;21913;52.456;13.634;2022-11-13T22:39:43;4.20;;;2.90;;
25155;SDS011;21913;52.456;13.634;2022-11-13T22:45:03;5.93;;;2.92;;
25155;SDS011;21913;52.456;13.634;2022-11-13T22:50:33;4.13;;;2.92;;
25155;SDS011;21913;52.456;13.634;2022-11-13T22:55:58;3.65;;;2.65;;
25155;SDS011;21913;52.456;13.634;2022-11-13T23:01:20;3.55;;;2.78;;
25155;SDS011;21913;52.456;13.634;2022-11-13T23:06:42;4.32;;;2.70;;
25155;SDS011;21913;52.456;13.634;2022-11-13T23:12:02;4.50;;;2.80;;
25155;SDS011;21913;52.456;13.634;2022-11-13T23:22:42;3.95;;;2.72;;
25155;SDS011;21913;52.456;13.634;2022-11-13T23:28:02;3.65;;;2.70;;
25155;SDS011;21913;52.456;13.634;2022-11-13T23:33:23;4.30;;;2.80;;
25155;SDS011;21913;52.456;13.634;2022-11-13T23:38:43;4.10;;;2.75;;
25155;SDS011;21913;52.456;13.634;2022-11-13T23:44:03;4.22;;;3.00;;
25155;SDS011;21913;52.456;13.634;2022-11-13T23:49:27;4.13;;;2.78;;
25155;SDS011;21913;52.456;13.634;2022-11-13T23:54:48;4.65;;;3.00;;
